Date,TemperatureHighF,TemperatureAvgF,TemperatureLowF,DewpointHighF,DewpointAvgF,DewpointLowF,HumidityHigh,HumidityAvg,HumidityLow,PressureMaxIn,PressureMinIn,WindSpeedMaxMPH,WindSpeedAvgMPH,GustSpeedMaxMPH,PrecipitationSumIn
2012-12-1,-200,0,200,-100,-100,-100,0,0,100,29.95,29.72,11,6,0,0.00
2012-12-2,-200,0,200,-100,-100,-100,0,0,100,29.98,29.83,13,6,0,0.00
2012-12-3,-200,0,200,-100,-100,-100,0,0,100,29.98,29.62,18,10,0,0.00
2012-12-4,-200,0,200,-100,-100,-100,0,0,100,30.28,30.02,10,6,0,0.00
2012-12-5,-200,0,200,-100,-100,-100,0,0,100,30.33,29.93,15,10,0,0.00
2012-12-6,-200,0,200,-100,-100,-100,0,0,100,29.93,29.84,12,7,0,0.00
2012-12-7,-200,0,200,-100,-100,-100,0,0,100,29.94,29.86,9,7,0,0.00
2012-12-8,-200,0,200,-100,-100,-100,0,0,100,29.98,29.92,7,4,0,0.00
2012-12-9,-200,0,200,-100,-100,-100,0,0,100,29.89,29.78,21,11,0,0.00
2012-12-10,-200,0,200,-100,-100,-100,0,0,100,29.91,29.88,5,5,0,0.00
2012-12-11,-200,0,200,-100,-100,-100,0,0,100,29.97,29.84,13,7,0,0.00
2012-12-12,-200,0,200,-100,-100,-100,0,0,100,30.00,29.93,22,13,0,0.00
2012-12-13,-200,0,200,-100,-100,-100,0,0,100,30.05,29.95,15,10,0,0.00
2012-12-14,-200,0,200,-100,-100,-100,0,0,100,30.05,29.72,12,6,0,0.00
2012-12-15,-200,0,200,-100,-100,-100,0,0,100,29.63,29.44,14,9,0,0.00
2012-12-16,-200,0,200,-100,-100,-100,0,0,100,29.75,29.63,13,9,0,0.00
2012-12-17,-200,0,200,-100,-100,-100,0,0,100,29.73,29.64,8,4,0,0.00
2012-12-18,-200,0,200,-100,-100,-100,0,0,100,29.82,29.46,13,8,0,0.00
2012-12-19,-200,0,200,-100,-100,-100,0,0,100,29.94,29.72,19,9,0,0.00
2012-12-20,-200,0,200,-100,-100,-100,0,0,100,30.01,29.58,33,27,0,0.00
2012-12-21,-200,0,200,-100,-100,-100,0,0,100,30.23,30.07,16,9,0,0.00
2012-12-22,-200,0,200,-100,-100,-100,0,0,100,30.15,29.88,9,6,0,0.00
2012-12-23,-200,0,200,-100,-100,-100,0,0,100,30.00,29.94,11,8,0,0.00
2012-12-24,-200,0,200,-100,-100,-100,0,0,100,30.18,29.90,17,13,0,0.00
2012-12-25,-200,0,200,-100,-100,-100,0,0,100,30.38,30.22,15,12,0,0.00
2012-12-26,-200,0,200,-100,-100,-100,0,0,100,30.25,30.14,11,7,0,0.00
2012-12-27,-200,0,200,-100,-100,-100,0,0,100,30.15,29.99,10,6,0,0.00
2012-12-28,-200,0,200,-100,-100,-100,0,0,100,29.96,29.88,11,6,0,0.00
2012-12-29,-200,0,200,-100,-100,-100,0,0,100,30.17,30.00,14,10,0,0.00
2012-12-30,-200,0,200,-100,-100,-100,0,0,100,30.19,29.92,14,8,0,0.00
2012-12-31,-200,0,200,-100,-100,-100,0,0,100,30.19,30.02,15,12,0,0.00